Tremonton, Utah
Current Conditions -  °F | °C
As of 12:55 AM on Tuesday 21 Oct 2014 (Local Time) from KBMC Reporting Station
Broken Clouds Broken Clouds  
Wind Chill: 11°   Ceiling: 11000
Heat Index: 11°   Visibility: 10mi
Dew Point:   Wind: 7mph
Humidity: 62%   Direction: 60°ENE
Pressure: 29.88"   Gusts: NA
Location:  41.71°N, 112.17°W
Report Text: KBMC 210655Z AUTO 06006KT 10SM BKN110 11/04 A2988 RMK AO1 T01110040 403670015
Loading
Personal Weather Stations






























Interactive Weather Map
Tropical Storm Tracking
New forecast layout! Learn more

10-Day Weather Forecast

Advertisements
Track Severe Weather on mobile